Time;durP1;ratioP1;P1;durP2;ratioP2;P2;SDS_P1;SDS_P2;PMS_P1;PMS_P2;Temp;Humidity;BMP_temperature;BMP_pressure;BME280_temperature;BME280_humidity;BME280_pressure;Samples;Min_cycle;Max_cycle;Signal;HPM_P1;HPM_P2
2023/08/10 00:00:48;;;;;;;1.10;1.10;;;;;;;;;;5088546;28;20677;-59
2023/08/10 00:03:15;;;;;;;2.63;1.13;;;;;;;;;;5088122;28;20209;-59
2023/08/10 00:05:42;;;;;;;1.57;1.00;;;;;;;;;;5088087;28;20202;-58
2023/08/10 00:08:09;;;;;;;1.10;1.10;;;;;;;;;;5088379;28;20198;-58
2023/08/10 00:10:37;;;;;;;2.17;1.13;;;;;;;;;;5088151;28;20309;-59
2023/08/10 00:13:04;;;;;;;3.30;1.20;;;;;;;;;;5088271;28;20237;-59
2023/08/10 00:15:31;;;;;;;2.53;2.07;;;;;;;;;;5088109;28;20878;-58
2023/08/10 00:18:00;;;;;;;1.23;1.23;;;;;;;;;;5087742;28;20202;-59
2023/08/10 00:20:27;;;;;;;1.30;1.30;;;;;;;;;;5087891;28;20753;-59
2023/08/10 00:22:54;;;;;;;2.40;1.20;;;;;;;;;;5088016;28;20198;-58
2023/08/10 00:25:22;;;;;;;1.07;1.07;;;;;;;;;;5088285;28;20206;-59
2023/08/10 00:27:49;;;;;;;1.20;1.20;;;;;;;;;;5088034;28;20226;-59
2023/08/10 00:30:16;;;;;;;2.50;2.30;;;;;;;;;;5087739;28;20267;-59
2023/08/10 00:32:43;;;;;;;1.20;1.20;;;;;;;;;;5087736;28;20241;-59
2023/08/10 00:35:12;;;;;;;2.30;1.67;;;;;;;;;;5087506;28;20637;-59
2023/08/10 00:37:39;;;;;;;3.83;1.47;;;;;;;;;;5088223;28;20217;-59
2023/08/10 00:40:09;;;;;;;2.43;1.30;;;;;;;;;;5090810;28;20218;-59
2023/08/10 00:42:36;;;;;;;2.77;1.57;;;;;;;;;;5091362;28;20217;-59
2023/08/10 00:45:03;;;;;;;1.27;1.17;;;;;;;;;;5092116;28;20237;-58
2023/08/10 00:47:30;;;;;;;1.93;1.47;;;;;;;;;;5091956;28;20206;-58
2023/08/10 00:49:57;;;;;;;4.80;1.10;;;;;;;;;;5092007;28;20891;-59
2023/08/10 00:52:25;;;;;;;1.10;1.10;;;;;;;;;;5091300;28;20230;-59
2023/08/10 00:54:53;;;;;;;1.60;1.20;;;;;;;;;;5091975;28;20206;-58
2023/08/10 00:57:20;;;;;;;0.93;0.93;;;;;;;;;;5091797;28;20267;-59
2023/08/10 00:59:48;;;;;;;1.10;1.10;;;;;;;;;;5089201;28;20210;-59
2023/08/10 01:02:15;;;;;;;1.70;1.10;;;;;;;;;;5089294;28;20285;-59
2023/08/10 01:04:43;;;;;;;1.07;1.07;;;;;;;;;;5090195;28;20198;-59
2023/08/10 01:07:15;;;;;;;3.10;1.30;;;;;;;;;;5089907;28;20210;-59
2023/08/10 01:09:48;;;;;;;2.63;1.30;;;;;;;;;;5091406;28;20672;-58
2023/08/10 01:12:18;;;;;;;1.17;1.00;;;;;;;;;;5091297;28;20222;-58
2023/08/10 01:14:49;;;;;;;1.10;1.10;;;;;;;;;;5091543;28;20237;-58
2023/08/10 01:17:19;;;;;;;1.37;1.10;;;;;;;;;;5077468;28;20206;-58
2023/08/10 01:19:48;;;;;;;0.97;0.97;;;;;;;;;;5091147;28;20198;-59
2023/08/10 01:22:19;;;;;;;0.90;0.90;;;;;;;;;;5090786;28;20202;-59
2023/08/10 01:24:48;;;;;;;1.70;1.07;;;;;;;;;;5091627;28;20210;-59
2023/08/10 01:27:16;;;;;;;1.60;0.80;;;;;;;;;;5091245;28;20855;-58
2023/08/10 01:29:44;;;;;;;1.10;1.10;;;;;;;;;;5091130;28;20217;-59
2023/08/10 01:32:14;;;;;;;1.10;1.10;;;;;;;;;;5090463;28;20638;-59
2023/08/10 01:34:41;;;;;;;1.20;1.20;;;;;;;;;;5089809;28;20672;-59
2023/08/10 01:37:09;;;;;;;0.90;0.90;;;;;;;;;;5090188;28;20214;-59
2023/08/10 01:39:36;;;;;;;1.53;1.07;;;;;;;;;;5089762;28;20229;-59
2023/08/10 01:42:03;;;;;;;1.10;1.10;;;;;;;;;;5090016;28;20209;-59
2023/08/10 01:44:31;;;;;;;1.00;1.00;;;;;;;;;;5085770;28;20269;-59
2023/08/10 01:47:02;;;;;;;1.20;1.20;;;;;;;;;;5090005;28;20297;-59
2023/08/10 01:49:31;;;;;;;1.37;1.17;;;;;;;;;;5089374;28;20210;-59
2023/08/10 01:51:59;;;;;;;2.30;1.20;;;;;;;;;;5089366;28;20218;-59
2023/08/10 01:54:27;;;;;;;0.90;0.90;;;;;;;;;;5089361;28;20203;-59
2023/08/10 01:56:54;;;;;;;2.60;1.10;;;;;;;;;;5089627;28;20213;-58
2023/08/10 01:59:21;;;;;;;0.90;0.90;;;;;;;;;;5089644;28;20229;-58
2023/08/10 02:01:50;;;;;;;2.50;1.00;;;;;;;;;;5089276;28;20195;-58
2023/08/10 02:04:17;;;;;;;1.13;1.13;;;;;;;;;;5088803;28;20217;-58
2023/08/10 02:06:44;;;;;;;3.47;1.20;;;;;;;;;;5089191;28;20199;-59
2023/08/10 02:09:11;;;;;;;1.37;1.20;;;;;;;;;;5089345;28;20215;-59
2023/08/10 02:11:38;;;;;;;1.23;1.20;;;;;;;;;;5089330;28;20206;-58
2023/08/10 02:14:05;;;;;;;1.90;1.20;;;;;;;;;;5089179;28;20209;-58
2023/08/10 02:16:32;;;;;;;1.73;1.33;;;;;;;;;;5089411;28;20214;-59
2023/08/10 02:19:00;;;;;;;3.23;1.10;;;;;;;;;;5089298;28;20216;-59
2023/08/10 02:21:27;;;;;;;1.23;1.17;;;;;;;;;;5089258;28;20218;-58
2023/08/10 02:23:54;;;;;;;1.00;1.00;;;;;;;;;;5089144;28;20225;-58
2023/08/10 02:26:21;;;;;;;1.00;1.00;;;;;;;;;;5089001;28;20214;-59
2023/08/10 02:28:48;;;;;;;1.03;1.00;;;;;;;;;;5089184;28;20230;-58
2023/08/10 02:31:16;;;;;;;1.13;1.03;;;;;;;;;;5088965;28;20222;-59
2023/08/10 02:33:43;;;;;;;2.83;1.10;;;;;;;;;;5052628;28;1045367;-59
2023/08/10 02:36:11;;;;;;;1.97;1.07;;;;;;;;;;5090395;28;20210;-59
2023/08/10 02:38:38;;;;;;;1.33;1.33;;;;;;;;;;5089664;28;20734;-59
2023/08/10 02:41:05;;;;;;;1.63;1.10;;;;;;;;;;5089971;28;20209;-59
2023/08/10 02:43:32;;;;;;;2.33;1.20;;;;;;;;;;5089903;28;20229;-59
2023/08/10 02:45:59;;;;;;;1.30;1.20;;;;;;;;;;5089747;28;20214;-59
2023/08/10 02:48:27;;;;;;;2.67;1.17;;;;;;;;;;5089733;28;20703;-59
2023/08/10 02:50:54;;;;;;;1.20;1.20;;;;;;;;;;5089734;28;20214;-59
2023/08/10 02:53:22;;;;;;;2.33;1.10;;;;;;;;;;5089415;28;20218;-59
2023/08/10 02:55:49;;;;;;;1.30;1.30;;;;;;;;;;5089525;28;20210;-59
2023/08/10 02:58:16;;;;;;;1.30;1.30;;;;;;;;;;5089419;28;20213;-59
2023/08/10 03:00:43;;;;;;;1.20;1.20;;;;;;;;;;5089251;28;20218;-59
2023/08/10 03:03:10;;;;;;;1.07;1.07;;;;;;;;;;5082432;28;20210;-59
2023/08/10 03:05:37;;;;;;;1.10;1.10;;;;;;;;;;5080746;28;20206;-59
2023/08/10 03:08:05;;;;;;;1.07;1.07;;;;;;;;;;5088837;28;20202;-58
2023/08/10 03:10:33;;;;;;;1.00;1.00;;;;;;;;;;5088798;28;20214;-58
2023/08/10 03:13:00;;;;;;;0.93;0.93;;;;;;;;;;5088831;28;20225;-59
2023/08/10 03:15:27;;;;;;;1.17;1.17;;;;;;;;;;5088764;28;20214;-59
2023/08/10 03:17:55;;;;;;;1.23;1.23;;;;;;;;;;5088744;28;20217;-58
2023/08/10 03:20:22;;;;;;;1.20;1.20;;;;;;;;;;5087486;28;20256;-59
2023/08/10 03:22:49;;;;;;;1.60;1.60;;;;;;;;;;5086761;28;20199;-59
2023/08/10 03:25:16;;;;;;;1.30;1.30;;;;;;;;;;5088991;28;20213;-58
2023/08/10 03:27:44;;;;;;;2.80;1.27;;;;;;;;;;5088711;28;20668;-58
2023/08/10 03:30:12;;;;;;;1.47;1.20;;;;;;;;;;5089074;28;20213;-58
2023/08/10 03:32:44;;;;;;;1.57;1.57;;;;;;;;;;5088230;28;20238;-59
2023/08/10 03:35:11;;;;;;;2.10;1.40;;;;;;;;;;5088573;28;20210;-58
2023/08/10 03:37:38;;;;;;;1.50;1.40;;;;;;;;;;5088607;28;20229;-59
2023/08/10 03:40:06;;;;;;;1.07;1.07;;;;;;;;;;5088545;28;20212;-59
2023/08/10 03:42:33;;;;;;;4.40;1.30;;;;;;;;;;5088748;28;20190;-59
2023/08/10 03:45:01;;;;;;;2.03;1.43;;;;;;;;;;5088370;28;20227;-59
2023/08/10 03:47:28;;;;;;;2.10;1.40;;;;;;;;;;5088832;28;20213;-59
2023/08/10 03:49:55;;;;;;;1.23;1.13;;;;;;;;;;5088231;28;20213;-59
2023/08/10 03:52:23;;;;;;;1.17;1.17;;;;;;;;;;5088474;28;20226;-58
2023/08/10 03:54:50;;;;;;;1.10;1.10;;;;;;;;;;5088170;28;20297;-58
2023/08/10 03:57:17;;;;;;;2.33;1.37;;;;;;;;;;5088334;28;20259;-59
2023/08/10 03:59:44;;;;;;;1.07;1.07;;;;;;;;;;5088607;28;20210;-58
2023/08/10 04:02:13;;;;;;;1.30;1.20;;;;;;;;;;5086019;28;20198;-59
2023/08/10 04:04:40;;;;;;;4.87;1.07;;;;;;;;;;5087404;28;20206;-58
2023/08/10 04:07:07;;;;;;;3.63;1.17;;;;;;;;;;5088476;28;20626;-59
2023/08/10 04:09:34;;;;;;;4.70;1.20;;;;;;;;;;5088347;28;20210;-59
2023/08/10 04:12:01;;;;;;;1.80;1.10;;;;;;;;;;5088154;28;20237;-58
2023/08/10 04:14:28;;;;;;;1.20;1.10;;;;;;;;;;5087414;28;20267;-59
2023/08/10 04:16:57;;;;;;;1.30;1.30;;;;;;;;;;5087666;28;20213;-59
2023/08/10 04:19:37;;;;;;;1.43;1.03;;;;;;;;;;5088250;28;20210;-59
2023/08/10 04:22:06;;;;;;;1.13;1.13;;;;;;;;;;5088310;28;20833;-59
2023/08/10 04:24:33;;;;;;;4.33;0.93;;;;;;;;;;5087996;28;20210;-59
2023/08/10 04:27:00;;;;;;;1.13;1.13;;;;;;;;;;5087954;28;20206;-59
2023/08/10 04:29:27;;;;;;;3.13;1.20;;;;;;;;;;5088080;28;20622;-59
2023/08/10 04:31:55;;;;;;;1.00;1.00;;;;;;;;;;5072382;28;20318;-59
2023/08/10 04:34:22;;;;;;;1.30;1.30;;;;;;;;;;5076242;28;20222;-59
2023/08/10 04:36:50;;;;;;;2.10;0.90;;;;;;;;;;5087600;28;20649;-58
2023/08/10 04:39:17;;;;;;;1.40;1.30;;;;;;;;;;5087649;28;20741;-59
2023/08/10 04:41:44;;;;;;;5.67;1.30;;;;;;;;;;5087883;28;20218;-59
2023/08/10 04:44:11;;;;;;;1.10;1.10;;;;;;;;;;5088034;28;20234;-58
2023/08/10 04:46:39;;;;;;;1.00;1.00;;;;;;;;;;5087720;28;20214;-59
2023/08/10 04:49:06;;;;;;;1.20;1.20;;;;;;;;;;5087660;28;20256;-58
2023/08/10 04:51:33;;;;;;;1.13;1.13;;;;;;;;;;5088185;28;20202;-59
2023/08/10 04:54:02;;;;;;;1.97;1.40;;;;;;;;;;5087504;28;20570;-59
2023/08/10 04:56:29;;;;;;;1.43;1.43;;;;;;;;;;5087895;28;20220;-59
2023/08/10 04:58:56;;;;;;;2.50;1.37;;;;;;;;;;5087261;28;20696;-58
2023/08/10 05:01:23;;;;;;;2.93;1.60;;;;;;;;;;5087873;28;20211;-59
2023/08/10 05:03:50;;;;;;;1.70;1.50;;;;;;;;;;5087807;28;20304;-58
2023/08/10 05:06:18;;;;;;;1.27;1.27;;;;;;;;;;5087779;28;20203;-58
2023/08/10 05:08:45;;;;;;;1.53;1.50;;;;;;;;;;5087792;28;20295;-59
2023/08/10 05:11:13;;;;;;;1.60;1.50;;;;;;;;;;5087335;28;20233;-59
2023/08/10 05:13:41;;;;;;;1.70;1.70;;;;;;;;;;5086853;28;20609;-58
2023/08/10 05:16:08;;;;;;;4.10;1.40;;;;;;;;;;5087267;28;20210;-59
2023/08/10 05:18:35;;;;;;;1.40;1.40;;;;;;;;;;5085141;28;20225;-59
2023/08/10 05:21:02;;;;;;;2.20;1.50;;;;;;;;;;5087384;28;20308;-59
2023/08/10 05:23:29;;;;;;;1.23;1.23;;;;;;;;;;5081936;28;20233;-59
2023/08/10 05:25:56;;;;;;;1.40;1.40;;;;;;;;;;5089862;28;20206;-59
2023/08/10 05:28:25;;;;;;;1.63;1.53;;;;;;;;;;5091578;28;20279;-58
2023/08/10 05:30:52;;;;;;;1.63;1.63;;;;;;;;;;5091267;28;20222;-58
2023/08/10 05:33:19;;;;;;;4.15;1.98;;;;;;;;;;5090572;28;20242;-58
2023/08/10 05:35:46;;;;;;;1.83;1.73;;;;;;;;;;5086250;28;20202;-59
2023/08/10 05:38:14;;;;;;;2.00;1.60;;;;;;;;;;5090851;28;20210;-58
2023/08/10 05:40:41;;;;;;;3.67;2.15;;;;;;;;;;5091342;28;20206;-59
2023/08/10 05:43:08;;;;;;;2.70;1.93;;;;;;;;;;5089611;28;20767;-58
2023/08/10 05:45:37;;;;;;;2.35;1.95;;;;;;;;;;5091097;28;20218;-58
2023/08/10 05:48:10;;;;;;;2.10;1.90;;;;;;;;;;5090929;28;20209;-59
2023/08/10 05:50:37;;;;;;;2.10;2.00;;;;;;;;;;5090812;28;20206;-59
2023/08/10 05:53:05;;;;;;;3.37;2.33;;;;;;;;;;5090881;28;20226;-58
2023/08/10 05:55:32;;;;;;;2.40;2.20;;;;;;;;;;5090911;28;20255;-58
2023/08/10 05:57:59;;;;;;;3.25;2.38;;;;;;;;;;5090276;28;20210;-59
2023/08/10 06:01:01;;;;;;;3.22;2.05;;;;;;;;;;5090658;28;20223;-59
2023/08/10 06:03:29;;;;;;;2.85;1.80;;;;;;;;;;5087874;28;20732;-58
2023/08/10 06:05:56;;;;;;;3.45;2.17;;;;;;;;;;5090634;28;20206;-59
2023/08/10 06:08:23;;;;;;;4.65;2.25;;;;;;;;;;5090379;28;20217;-59
2023/08/10 06:10:51;;;;;;;2.67;2.20;;;;;;;;;;5090382;28;20210;-58
2023/08/10 06:13:18;;;;;;;1.77;1.75;;;;;;;;;;5090495;28;20738;-59
2023/08/10 06:15:45;;;;;;;2.42;2.20;;;;;;;;;;5090178;28;20298;-59
2023/08/10 06:18:13;;;;;;;3.35;1.95;;;;;;;;;;5090197;28;20230;-60
2023/08/10 06:20:41;;;;;;;2.20;2.10;;;;;;;;;;5090187;28;20208;-59
2023/08/10 06:23:08;;;;;;;2.72;2.53;;;;;;;;;;5090043;28;20352;-58
2023/08/10 06:25:35;;;;;;;2.63;2.47;;;;;;;;;;5090173;28;20603;-59
2023/08/10 06:28:03;;;;;;;2.40;2.30;;;;;;;;;;5089807;28;20206;-59
2023/08/10 06:30:30;;;;;;;2.40;2.28;;;;;;;;;;5090232;28;20301;-59
2023/08/10 06:32:57;;;;;;;2.22;2.13;;;;;;;;;;5089737;28;20246;-59
2023/08/10 06:35:24;;;;;;;2.30;2.20;;;;;;;;;;5090038;28;20305;-59
2023/08/10 06:37:52;;;;;;;2.10;2.00;;;;;;;;;;5089004;28;20209;-59
2023/08/10 06:40:21;;;;;;;5.05;2.55;;;;;;;;;;5089778;28;20206;-58
2023/08/10 06:42:49;;;;;;;2.55;2.10;;;;;;;;;;5089491;28;20198;-64
2023/08/10 06:45:16;;;;;;;2.38;2.17;;;;;;;;;;5089712;28;20230;-59
2023/08/10 06:47:43;;;;;;;2.28;2.13;;;;;;;;;;5089546;28;20217;-59
2023/08/10 06:50:10;;;;;;;2.05;1.95;;;;;;;;;;5089643;28;20581;-59
2023/08/10 06:52:37;;;;;;;2.22;1.92;;;;;;;;;;5089661;28;20217;-59
2023/08/10 06:55:07;;;;;;;2.90;1.80;;;;;;;;;;5089603;28;20226;-60
2023/08/10 06:57:35;;;;;;;3.25;2.22;;;;;;;;;;5077907;28;20294;-59
2023/08/10 07:00:02;;;;;;;2.55;2.08;;;;;;;;;;5071214;28;20221;-59
2023/08/10 07:02:29;;;;;;;2.08;1.98;;;;;;;;;;5089267;28;20198;-60
2023/08/10 07:04:56;;;;;;;1.77;1.77;;;;;;;;;;5089004;28;20206;-59
2023/08/10 07:07:24;;;;;;;1.77;1.63;;;;;;;;;;5087562;28;20221;-61
2023/08/10 07:09:51;;;;;;;4.63;2.15;;;;;;;;;;5069631;28;20210;-57
2023/08/10 07:12:19;;;;;;;3.72;2.00;;;;;;;;;;5088340;28;20307;-58
2023/08/10 07:14:46;;;;;;;3.95;2.17;;;;;;;;;;5088951;28;20226;-58
2023/08/10 07:17:13;;;;;;;2.20;2.10;;;;;;;;;;5083228;28;20689;-59
2023/08/10 07:19:40;;;;;;;2.38;2.22;;;;;;;;;;5068688;28;20207;-59
2023/08/10 07:22:07;;;;;;;1.92;1.77;;;;;;;;;;5068565;28;20233;-58
2023/08/10 07:24:34;;;;;;;1.85;1.83;;;;;;;;;;5068751;28;20665;-58
2023/08/10 07:27:02;;;;;;;2.80;1.95;;;;;;;;;;5068695;28;20210;-58
2023/08/10 07:29:30;;;;;;;1.98;1.98;;;;;;;;;;5080977;28;20210;-59
2023/08/10 07:32:00;;;;;;;2.28;2.17;;;;;;;;;;5088685;28;20791;-58
2023/08/10 07:34:27;;;;;;;2.65;1.95;;;;;;;;;;5087853;28;20657;-58
2023/08/10 07:36:54;;;;;;;3.30;2.15;;;;;;;;;;5086930;28;20306;-59
2023/08/10 07:39:21;;;;;;;2.85;1.90;;;;;;;;;;5088284;28;20210;-59
2023/08/10 07:41:48;;;;;;;2.22;2.13;;;;;;;;;;5088079;28;20233;-60
2023/08/10 07:44:15;;;;;;;2.00;2.00;;;;;;;;;;5087431;28;20222;-63
2023/08/10 07:46:46;;;;;;;1.77;1.77;;;;;;;;;;5087401;28;20210;-62
2023/08/10 07:49:19;;;;;;;2.03;1.92;;;;;;;;;;5087815;28;20199;-59
2023/08/10 07:51:47;;;;;;;1.85;1.80;;;;;;;;;;5087019;28;20836;-62
2023/08/10 07:54:14;;;;;;;1.90;1.90;;;;;;;;;;5088043;28;20325;-64
2023/08/10 07:56:42;;;;;;;1.77;1.77;;;;;;;;;;5087740;28;20297;-57
2023/08/10 07:59:11;;;;;;;1.90;1.90;;;;;;;;;;5087926;28;20203;-57
2023/08/10 08:01:39;;;;;;;3.33;1.95;;;;;;;;;;5087768;28;20221;-57
2023/08/10 08:04:07;;;;;;;2.45;2.25;;;;;;;;;;5087827;28;20290;-60
2023/08/10 08:06:35;;;;;;;2.08;2.03;;;;;;;;;;5087836;28;20209;-60
2023/08/10 08:09:03;;;;;;;2.17;2.08;;;;;;;;;;5087753;28;20241;-59
2023/08/10 08:11:30;;;;;;;2.15;2.05;;;;;;;;;;5087978;28;20748;-59
2023/08/10 08:13:57;;;;;;;2.17;2.00;;;;;;;;;;5087589;28;20283;-60
2023/08/10 08:16:24;;;;;;;1.77;1.67;;;;;;;;;;5087866;28;20218;-60
2023/08/10 08:18:53;;;;;;;1.85;1.70;;;;;;;;;;5087059;28;20556;-57
2023/08/10 08:21:21;;;;;;;1.85;1.75;;;;;;;;;;5087685;28;20305;-57
2023/08/10 08:23:49;;;;;;;1.98;1.75;;;;;;;;;;5087254;28;20206;-57
2023/08/10 08:26:17;;;;;;;1.88;1.77;;;;;;;;;;5087459;28;20202;-61
2023/08/10 08:28:44;;;;;;;1.70;1.60;;;;;;;;;;5087746;28;20213;-60
2023/08/10 08:31:11;;;;;;;1.77;1.67;;;;;;;;;;5087155;28;20575;-62
2023/08/10 08:33:39;;;;;;;1.38;1.38;;;;;;;;;;5085260;28;20356;-62
2023/08/10 08:36:06;;;;;;;1.42;1.42;;;;;;;;;;5086941;28;20206;-62
2023/08/10 08:38:34;;;;;;;1.77;1.70;;;;;;;;;;5087425;28;20221;-62
2023/08/10 08:41:04;;;;;;;2.22;2.13;;;;;;;;;;5087026;28;20202;-62
2023/08/10 08:43:31;;;;;;;2.42;1.70;;;;;;;;;;5087106;28;20275;-62
2023/08/10 08:45:59;;;;;;;1.80;1.70;;;;;;;;;;5087067;28;20214;-62
2023/08/10 08:48:28;;;;;;;3.60;1.90;;;;;;;;;;5086878;28;20229;-62
2023/08/10 08:50:55;;;;;;;2.58;2.00;;;;;;;;;;5087224;28;20301;-62
2023/08/10 08:53:22;;;;;;;2.03;1.90;;;;;;;;;;5086925;28;20688;-62
2023/08/10 08:55:51;;;;;;;2.92;2.00;;;;;;;;;;5087230;28;20233;-62
2023/08/10 08:58:19;;;;;;;1.85;1.65;;;;;;;;;;5085434;28;20304;-62
2023/08/10 09:00:48;;;;;;;1.92;1.83;;;;;;;;;;5086850;28;20217;-62
2023/08/10 09:03:15;;;;;;;2.10;1.90;;;;;;;;;;5077526;28;20213;-62
2023/08/10 09:05:42;;;;;;;2.67;1.50;;;;;;;;;;5070014;28;20211;-62
2023/08/10 09:08:10;;;;;;;1.70;1.70;;;;;;;;;;5070830;28;20217;-62
2023/08/10 09:10:37;;;;;;;1.40;1.40;;;;;;;;;;5070842;28;20639;-63
2023/08/10 09:13:12;;;;;;;1.42;1.42;;;;;;;;;;5071056;28;20210;-62
2023/08/10 09:15:39;;;;;;;1.60;1.30;;;;;;;;;;5076570;28;20241;-62
2023/08/10 09:18:06;;;;;;;2.25;1.38;;;;;;;;;;5091302;28;20217;-62
2023/08/10 09:20:34;;;;;;;1.30;1.30;;;;;;;;;;5090128;28;20206;-62
2023/08/10 09:23:01;;;;;;;3.75;1.42;;;;;;;;;;5091435;28;20202;-68
2023/08/10 09:25:34;;;;;;;2.55;1.95;;;;;;;;;;5091358;28;20206;-58
2023/08/10 09:28:01;;;;;;;1.60;1.50;;;;;;;;;;5090838;28;20225;-58
2023/08/10 09:30:35;;;;;;;1.65;1.55;;;;;;;;;;5090819;28;20560;-59
2023/08/10 09:33:02;;;;;;;2.80;1.50;;;;;;;;;;5090460;28;20249;-59
2023/08/10 09:35:31;;;;;;;2.47;1.27;;;;;;;;;;5090532;28;20597;-59
2023/08/10 09:38:00;;;;;;;3.13;1.50;;;;;;;;;;5090620;28;20295;-59
2023/08/10 09:40:27;;;;;;;2.85;1.27;;;;;;;;;;5090479;28;20236;-59
2023/08/10 09:42:54;;;;;;;3.13;1.23;;;;;;;;;;5090212;28;20217;-59
2023/08/10 09:45:22;;;;;;;1.42;1.33;;;;;;;;;;5090373;28;20613;-59
2023/08/10 09:47:50;;;;;;;1.40;1.30;;;;;;;;;;5090033;28;20206;-60
2023/08/10 09:50:18;;;;;;;1.42;1.42;;;;;;;;;;5089555;28;20288;-59
2023/08/10 09:52:47;;;;;;;2.42;1.50;;;;;;;;;;5090686;28;20209;-60
2023/08/10 09:55:14;;;;;;;1.70;1.60;;;;;;;;;;5066847;28;20566;-60
2023/08/10 09:57:44;;;;;;;1.60;1.50;;;;;;;;;;5070051;28;20211;-60
2023/08/10 10:00:17;;;;;;;1.75;1.65;;;;;;;;;;5069532;28;20226;-60
2023/08/10 10:02:45;;;;;;;1.67;1.58;;;;;;;;;;5070000;28;20661;-59
2023/08/10 10:05:14;;;;;;;4.60;1.40;;;;;;;;;;5069278;28;20293;-60
2023/08/10 10:07:42;;;;;;;1.67;1.63;;;;;;;;;;5069539;28;20218;-58
2023/08/10 10:10:13;;;;;;;2.15;1.40;;;;;;;;;;5069195;28;20222;-58
2023/08/10 10:12:41;;;;;;;1.50;1.45;;;;;;;;;;5069506;28;20225;-58
2023/08/10 10:15:09;;;;;;;1.85;1.30;;;;;;;;;;5072342;28;20520;-58
2023/08/10 10:17:36;;;;;;;1.42;1.33;;;;;;;;;;5089339;28;20265;-58
2023/08/10 10:20:11;;;;;;;1.00;1.00;;;;;;;;;;5089357;28;20622;-58
2023/08/10 10:22:39;;;;;;;1.92;1.20;;;;;;;;;;5089574;28;20218;-59
2023/08/10 10:25:07;;;;;;;1.40;1.40;;;;;;;;;;5089268;28;20202;-59
2023/08/10 10:27:40;;;;;;;1.58;1.52;;;;;;;;;;5089190;28;20675;-59
2023/08/10 10:30:15;;;;;;;1.23;1.23;;;;;;;;;;5089110;28;20304;-59
2023/08/10 10:32:45;;;;;;;2.25;1.20;;;;;;;;;;5089107;28;20685;-59
2023/08/10 10:35:13;;;;;;;1.38;1.33;;;;;;;;;;5088628;28;20325;-59
2023/08/10 10:37:41;;;;;;;1.10;1.08;;;;;;;;;;5089071;28;20263;-59
2023/08/10 10:40:15;;;;;;;0.90;0.90;;;;;;;;;;5088913;28;20495;-59
2023/08/10 10:42:57;;;;;;;1.20;1.20;;;;;;;;;;5088900;28;20339;-59
2023/08/10 10:45:25;;;;;;;1.70;1.40;;;;;;;;;;5088847;28;20214;-59
2023/08/10 10:47:52;;;;;;;1.00;1.00;;;;;;;;;;5088779;28;20403;-59
2023/08/10 10:50:20;;;;;;;1.92;0.80;;;;;;;;;;5088505;28;20229;-59
2023/08/10 10:52:54;;;;;;;1.13;1.13;;;;;;;;;;5088833;28;20597;-59
2023/08/10 10:55:21;;;;;;;2.03;1.10;;;;;;;;;;5088823;28;20222;-59
2023/08/10 10:57:49;;;;;;;1.20;1.10;;;;;;;;;;5088542;28;20214;-59
2023/08/10 11:00:17;;;;;;;1.20;1.13;;;;;;;;;;5088554;28;20676;-59
2023/08/10 11:02:44;;;;;;;1.23;1.23;;;;;;;;;;5088655;28;20246;-60
2023/08/10 11:05:12;;;;;;;1.00;1.00;;;;;;;;;;5088770;28;20209;-60
2023/08/10 11:07:41;;;;;;;1.13;1.13;;;;;;;;;;5088725;28;20216;-60
2023/08/10 11:10:14;;;;;;;2.28;1.15;;;;;;;;;;5088180;28;20648;-59
2023/08/10 11:12:42;;;;;;;1.23;1.23;;;;;;;;;;5088825;28;20206;-59
2023/08/10 11:15:10;;;;;;;1.48;1.38;;;;;;;;;;5088181;28;20241;-59
2023/08/10 11:17:37;;;;;;;1.13;1.13;;;;;;;;;;5088404;28;20206;-59
2023/08/10 11:20:09;;;;;;;1.30;1.20;;;;;;;;;;5088173;28;20288;-60
2023/08/10 11:22:38;;;;;;;1.70;1.27;;;;;;;;;;5087841;28;20206;-59
2023/08/10 11:25:08;;;;;;;1.23;1.23;;;;;;;;;;5088285;28;20259;-59
2023/08/10 11:27:37;;;;;;;1.30;1.25;;;;;;;;;;5088113;28;20673;-60
2023/08/10 11:30:05;;;;;;;1.02;0.98;;;;;;;;;;5088078;28;20202;-59
2023/08/10 11:32:32;;;;;;;0.98;0.98;;;;;;;;;;5087694;28;20774;-59
2023/08/10 11:34:59;;;;;;;1.25;1.00;;;;;;;;;;5088120;28;20230;-59
2023/08/10 11:37:30;;;;;;;1.67;1.40;;;;;;;;;;5087794;28;20221;-59
2023/08/10 11:40:05;;;;;;;1.30;1.30;;;;;;;;;;5087793;28;20213;-59
2023/08/10 11:42:37;;;;;;;1.20;1.20;;;;;;;;;;5088012;28;20213;-59
2023/08/10 11:45:08;;;;;;;1.30;1.23;;;;;;;;;;5087012;28;20226;-59
2023/08/10 11:47:43;;;;;;;1.00;1.00;;;;;;;;;;5082981;28;20202;-59
2023/08/10 11:50:11;;;;;;;1.20;1.20;;;;;;;;;;5087524;28;20275;-59
2023/08/10 11:52:39;;;;;;;1.38;1.38;;;;;;;;;;5088374;28;20210;-59
2023/08/10 11:55:12;;;;;;;1.27;1.27;;;;;;;;;;5087358;28;20282;-58
2023/08/10 11:57:41;;;;;;;1.13;1.13;;;;;;;;;;5087413;28;20238;-58
2023/08/10 12:00:25;;;;;;;1.00;1.00;;;;;;;;;;5088037;28;20214;-59
2023/08/10 12:03:04;;;;;;;0.93;0.93;;;;;;;;;;5075465;28;20233;-60
2023/08/10 12:05:38;;;;;;;2.95;1.10;;;;;;;;;;5087302;28;20202;-61
2023/08/10 12:08:06;;;;;;;1.25;1.25;;;;;;;;;;5087254;28;20206;-58
2023/08/10 12:10:41;;;;;;;1.20;1.20;;;;;;;;;;5087320;28;20213;-61
2023/08/10 12:13:10;;;;;;;0.90;0.90;;;;;;;;;;5086025;28;20194;-58
2023/08/10 12:15:37;;;;;;;1.60;1.50;;;;;;;;;;5074480;28;20723;-59
2023/08/10 12:18:04;;;;;;;2.15;1.40;;;;;;;;;;5087712;28;20221;-59
2023/08/10 12:20:32;;;;;;;0.98;0.98;;;;;;;;;;5086168;28;20209;-59
2023/08/10 12:22:59;;;;;;;1.00;1.00;;;;;;;;;;5086808;28;20673;-58
2023/08/10 12:25:26;;;;;;;1.15;1.15;;;;;;;;;;5084719;28;20198;-59
2023/08/10 12:27:53;;;;;;;1.90;1.13;;;;;;;;;;5067406;28;20242;-59
2023/08/10 12:30:22;;;;;;;0.90;0.90;;;;;;;;;;5077183;28;20449;-61
2023/08/10 12:32:49;;;;;;;0.90;0.90;;;;;;;;;;5082407;28;20283;-59
2023/08/10 12:35:16;;;;;;;1.00;1.00;;;;;;;;;;5081616;28;20237;-59
2023/08/10 12:37:43;;;;;;;1.05;0.88;;;;;;;;;;5088069;28;20588;-59
2023/08/10 12:40:11;;;;;;;1.02;1.02;;;;;;;;;;5077074;28;20584;-61
2023/08/10 12:42:39;;;;;;;1.20;1.20;;;;;;;;;;5077265;28;20872;-59
2023/08/10 12:45:08;;;;;;;1.13;1.10;;;;;;;;;;5074083;28;20207;-59
2023/08/10 12:47:37;;;;;;;1.05;1.05;;;;;;;;;;5091636;28;20289;-60
2023/08/10 12:50:04;;;;;;;0.85;0.85;;;;;;;;;;5071482;28;20237;-60
2023/08/10 12:52:31;;;;;;;1.08;1.05;;;;;;;;;;5071158;28;20211;-60
2023/08/10 12:54:58;;;;;;;1.25;1.25;;;;;;;;;;5086554;28;20217;-60
2023/08/10 12:57:25;;;;;;;1.10;1.10;;;;;;;;;;5083873;28;20264;-60
2023/08/10 12:59:52;;;;;;;0.80;0.80;;;;;;;;;;5085407;28;20214;-60
2023/08/10 13:02:19;;;;;;;1.30;1.25;;;;;;;;;;5070721;28;20214;-60
2023/08/10 13:04:50;;;;;;;1.30;1.00;;;;;;;;;;5088304;28;20206;-60
2023/08/10 13:07:18;;;;;;;1.40;1.40;;;;;;;;;;5091596;28;20301;-60
2023/08/10 13:09:45;;;;;;;1.42;1.27;;;;;;;;;;5091232;28;20213;-59
2023/08/10 13:12:14;;;;;;;2.80;1.15;;;;;;;;;;5091209;28;20206;-59
2023/08/10 13:14:41;;;;;;;1.65;1.55;;;;;;;;;;5090714;28;20238;-59
2023/08/10 13:17:11;;;;;;;1.27;1.27;;;;;;;;;;5090880;28;20917;-59
2023/08/10 13:19:38;;;;;;;1.40;1.40;;;;;;;;;;5090886;28;20210;-59
2023/08/10 13:22:07;;;;;;;2.15;1.58;;;;;;;;;;5090874;28;20210;-59
2023/08/10 13:24:34;;;;;;;4.32;1.30;;;;;;;;;;5090409;28;20266;-60
2023/08/10 13:27:01;;;;;;;1.38;1.38;;;;;;;;;;5090568;28;20636;-59
2023/08/10 13:29:28;;;;;;;1.48;1.38;;;;;;;;;;5090907;28;20446;-59
2023/08/10 13:31:55;;;;;;;1.52;1.27;;;;;;;;;;5090535;28;20242;-60
2023/08/10 13:34:22;;;;;;;1.30;1.30;;;;;;;;;;5090255;28;20206;-59
2023/08/10 13:36:51;;;;;;;1.20;1.10;;;;;;;;;;5090269;28;20305;-60
2023/08/10 13:39:19;;;;;;;1.10;1.10;;;;;;;;;;5090657;28;20306;-60
2023/08/10 13:41:47;;;;;;;1.55;1.48;;;;;;;;;;5090603;28;20791;-59
2023/08/10 13:44:14;;;;;;;1.10;1.10;;;;;;;;;;5087983;28;20730;-59
2023/08/10 13:46:42;;;;;;;1.20;1.20;;;;;;;;;;5085763;28;20700;-59
2023/08/10 13:49:09;;;;;;;1.20;1.20;;;;;;;;;;5090455;28;20211;-59
2023/08/10 13:51:37;;;;;;;1.17;1.17;;;;;;;;;;5078339;28;20218;-60
2023/08/10 13:54:04;;;;;;;1.27;1.20;;;;;;;;;;5070375;28;20214;-60
2023/08/10 13:56:53;;;;;;;1.05;1.05;;;;;;;;;;5089836;28;20276;-60
2023/08/10 13:59:20;;;;;;;1.00;1.00;;;;;;;;;;5085706;28;20210;-59
2023/08/10 14:01:47;;;;;;;0.93;0.93;;;;;;;;;;5090331;28;20210;-60
2023/08/10 14:04:14;;;;;;;2.22;1.35;;;;;;;;;;5085215;28;20673;-60
2023/08/10 14:06:41;;;;;;;0.88;0.88;;;;;;;;;;5083666;28;20772;-60
2023/08/10 14:09:10;;;;;;;1.50;1.40;;;;;;;;;;5088449;28;20729;-59
2023/08/10 14:11:39;;;;;;;1.10;1.10;;;;;;;;;;5087109;28;20207;-60
2023/08/10 14:14:06;;;;;;;2.70;1.30;;;;;;;;;;5086770;28;20206;-59
2023/08/10 14:16:33;;;;;;;1.05;1.05;;;;;;;;;;5088256;28;20318;-60
2023/08/10 14:19:00;;;;;;;1.10;1.10;;;;;;;;;;5089551;28;20289;-60
2023/08/10 14:21:28;;;;;;;1.05;1.05;;;;;;;;;;5089242;28;20205;-60
2023/08/10 14:23:55;;;;;;;1.10;1.10;;;;;;;;;;5089408;28;20272;-59
2023/08/10 14:26:22;;;;;;;1.45;1.10;;;;;;;;;;5088990;28;20202;-59
2023/08/10 14:28:50;;;;;;;1.63;0.98;;;;;;;;;;5089104;28;20221;-59
2023/08/10 14:31:17;;;;;;;0.95;0.95;;;;;;;;;;5089293;28;20202;-59
2023/08/10 14:33:45;;;;;;;1.90;1.80;;;;;;;;;;5089114;28;20250;-60
2023/08/10 14:36:12;;;;;;;1.00;1.00;;;;;;;;;;5089112;28;20248;-59
2023/08/10 14:38:39;;;;;;;1.20;1.20;;;;;;;;;;5088910;28;20206;-59
2023/08/10 14:41:06;;;;;;;1.00;1.00;;;;;;;;;;5088736;28;20237;-59
2023/08/10 14:43:33;;;;;;;0.77;0.77;;;;;;;;;;5089138;28;20240;-60
2023/08/10 14:46:02;;;;;;;1.00;1.00;;;;;;;;;;5088876;28;20309;-59
2023/08/10 14:48:29;;;;;;;1.02;1.02;;;;;;;;;;5088392;28;20207;-60